createdAt,value
2022-10-21T00:00:38.782Z,100014.31
2022-10-21T00:03:05.801Z,99999.22
2022-10-21T00:05:32.959Z,100001.28
2022-10-21T00:07:59.860Z,100002.28
2022-10-21T00:10:26.742Z,99991.06
2022-10-21T00:12:53.652Z,99998.00
2022-10-21T00:15:20.628Z,99998.63
2022-10-21T00:17:47.423Z,99988.81
2022-10-21T00:20:14.280Z,99996.75
2022-10-21T00:22:41.170Z,99997.56
2022-10-21T00:25:08.668Z,99989.84
2022-10-21T00:27:36.032Z,99987.41
2022-10-21T00:30:05.922Z,99997.81
2022-10-21T00:32:32.755Z,100000.22
2022-10-21T00:34:59.820Z,99991.25
2022-10-21T00:37:30.031Z,99994.53
2022-10-21T00:39:57.042Z,100010.03
2022-10-21T00:42:31.245Z,99994.94
2022-10-21T00:45:18.916Z,100013.88
2022-10-21T00:47:51.862Z,100013.69
2022-10-21T00:50:43.541Z,100006.13
2022-10-21T00:53:14.304Z,99993.69
2022-10-21T00:55:47.441Z,99990.22
2022-10-21T00:58:15.835Z,99984.34
2022-10-21T01:00:42.724Z,99984.34
2022-10-21T01:03:09.667Z,99978.03
2022-10-21T01:05:39.508Z,99971.47
2022-10-21T01:08:06.391Z,99976.59
2022-10-21T01:10:33.267Z,99965.34
2022-10-21T01:13:00.028Z,99968.00
2022-10-21T01:15:45.277Z,99975.13
2022-10-21T01:18:35.395Z,99974.31
2022-10-21T01:21:41.913Z,99973.72
2022-10-21T01:24:53.022Z,99967.59
2022-10-21T01:27:57.136Z,99949.88
2022-10-21T01:30:29.833Z,99954.16
2022-10-21T01:33:04.640Z,99934.16
2022-10-21T01:35:50.077Z,99917.63
2022-10-21T01:38:41.546Z,99897.25
2022-10-21T01:41:42.418Z,99891.75
2022-10-21T01:44:11.840Z,99905.00
2022-10-21T01:46:47.401Z,99900.50
2022-10-21T01:49:39.368Z,99902.16
2022-10-21T01:52:07.891Z,99898.06
2022-10-21T01:54:40.483Z,99897.03
2022-10-21T01:57:09.068Z,99893.56
2022-10-21T01:59:36.345Z,99875.22
2022-10-21T02:02:05.822Z,99885.03
2022-10-21T02:04:36.425Z,99887.69
2022-10-21T02:07:03.448Z,99894.81
2022-10-21T02:12:17.675Z,99899.69
2022-10-21T02:14:51.480Z,99883.78
2022-10-21T02:17:20.847Z,99859.94
2022-10-21T02:19:48.174Z,99847.50
2022-10-21T02:22:20.672Z,99843.19
2022-10-21T02:25:16.393Z,99843.00
2022-10-21T02:27:43.696Z,99840.16
2022-10-21T02:30:11.144Z,99847.88
2022-10-21T02:32:58.169Z,99841.34
2022-10-21T02:35:46.512Z,99838.72
2022-10-21T02:38:39.221Z,99832.38
2022-10-21T02:41:10.959Z,99833.81
2022-10-21T02:43:52.770Z,99828.13
2022-10-21T02:46:19.623Z,99832.19
2022-10-21T02:48:48.133Z,99845.44
2022-10-21T02:51:15.713Z,99852.56
2022-10-21T02:53:43.021Z,99855.84
2022-10-21T02:56:09.821Z,99846.06
2022-10-21T02:58:38.325Z,99850.09
2022-10-21T03:01:05.382Z,99846.63
2022-10-21T03:03:32.347Z,99831.75
2022-10-21T03:05:59.089Z,99814.00
2022-10-21T03:08:25.949Z,99783.22
2022-10-21T03:10:53.516Z,99762.78
2022-10-21T03:13:21.407Z,99765.25
2022-10-21T03:15:51.425Z,99794.22
2022-10-21T03:18:18.762Z,99793.78
2022-10-21T03:20:50.100Z,99793.56
2022-10-21T03:23:17.850Z,99794.19
2022-10-21T03:25:44.858Z,99798.44
2022-10-21T03:28:11.978Z,99797.22
2022-10-21T03:30:38.810Z,99792.75
2022-10-21T03:33:05.645Z,99797.03
2022-10-21T03:35:32.420Z,99791.72
2022-10-21T03:37:59.281Z,99789.06
2022-10-21T03:40:30.178Z,99788.25
2022-10-21T03:43:00.307Z,99783.75
2022-10-21T03:45:27.231Z,99762.75
2022-10-21T03:47:54.071Z,99767.22
2022-10-21T03:50:26.125Z,99763.31
2022-10-21T03:52:53.455Z,99764.38
2022-10-21T03:55:21.203Z,99766.22
2022-10-21T03:57:48.501Z,99765.19
2022-10-21T04:00:15.694Z,99765.19
2022-10-21T04:02:43.345Z,99751.69
2022-10-21T04:05:10.790Z,99750.69
2022-10-21T04:07:37.781Z,99743.53
2022-10-21T04:10:05.439Z,99729.47
2022-10-21T04:12:32.264Z,99727.63
2022-10-21T04:14:59.059Z,99733.75
2022-10-21T04:17:26.065Z,99742.50
2022-10-21T04:19:53.028Z,99745.97
2022-10-21T04:22:19.792Z,99736.19
2022-10-21T04:24:46.536Z,99728.22
2022-10-21T04:27:13.349Z,99723.72
2022-10-21T04:29:40.111Z,99720.03
2022-10-21T04:32:07.001Z,99733.72
2022-10-21T04:34:33.719Z,99744.91
2022-10-21T04:37:04.084Z,99745.72
2022-10-21T04:39:32.072Z,99748.16
2022-10-21T04:41:59.004Z,99747.16
2022-10-21T04:44:25.832Z,99743.88
2022-10-21T04:46:52.638Z,99731.63
2022-10-21T04:49:19.690Z,99735.31
2022-10-21T04:51:46.581Z,99737.75
2022-10-21T04:54:13.769Z,99739.59
2022-10-21T04:56:41.647Z,99732.66
2022-10-21T04:59:08.443Z,99730.00
2022-10-21T05:01:35.285Z,99733.91
2022-10-21T05:04:02.043Z,99736.34
2022-10-21T05:06:28.794Z,99729.19
2022-10-21T05:08:55.770Z,99731.84
2022-10-21T05:11:22.730Z,99726.78
2022-10-21T05:13:49.470Z,99708.41
2022-10-21T05:16:16.354Z,99712.31
2022-10-21T05:18:43.164Z,99721.06
2022-10-21T05:21:09.912Z,99717.19
2022-10-21T05:23:36.726Z,99710.44
2022-10-21T05:26:03.557Z,99713.34
2022-10-21T05:28:30.408Z,99717.81
2022-10-21T05:30:57.160Z,99718.03
2022-10-21T05:33:24.043Z,99708.22
2022-10-21T05:36:02.030Z,99713.53
2022-10-21T05:38:30.044Z,99709.88
2022-10-21T05:41:00.587Z,99706.19
2022-10-21T05:43:28.337Z,99707.22
2022-10-21T05:45:55.104Z,99701.09
2022-10-21T05:48:23.923Z,99698.44
2022-10-21T05:50:53.836Z,99691.31
2022-10-21T05:53:21.556Z,99680.47
2022-10-21T05:56:07.004Z,99675.75
2022-10-21T05:58:35.284Z,99683.13
2022-10-21T06:01:02.538Z,99700.66
2022-10-21T06:03:33.004Z,99696.97
2022-10-21T06:06:01.769Z,99711.06
2022-10-21T06:08:32.431Z,99704.72
2022-10-21T06:11:15.741Z,99702.25
2022-10-21T06:13:42.586Z,99704.91
2022-10-21T06:16:10.185Z,99696.94
2022-10-21T06:18:37.144Z,99694.09
2022-10-21T06:21:04.344Z,99694.88
2022-10-21T06:23:31.171Z,99690.63
2022-10-21T06:26:00.154Z,99694.88
2022-10-21T06:28:29.948Z,99706.91
2022-10-21T06:30:57.244Z,99705.88
2022-10-21T06:33:27.009Z,99717.88
2022-10-21T06:35:55.257Z,99712.38
2022-10-21T06:38:27.477Z,99728.09
2022-10-21T06:41:01.871Z,99738.47
2022-10-21T06:43:29.081Z,99736.44
2022-10-21T06:46:01.270Z,99722.94
2022-10-21T06:48:32.570Z,99734.38
2022-10-21T06:51:10.115Z,99736.81
2022-10-21T06:53:39.270Z,99735.56
2022-10-21T06:56:15.055Z,99729.25
2022-10-21T06:58:48.165Z,99729.00
2022-10-21T07:01:33.795Z,99730.63
2022-10-21T07:04:03.521Z,99734.94
2022-10-21T07:06:30.764Z,99735.75
2022-10-21T07:08:58.867Z,99752.47
2022-10-21T07:11:27.270Z,99751.66
2022-10-21T07:13:54.657Z,99756.97
2022-10-21T07:16:27.509Z,99763.47
2022-10-21T07:18:55.390Z,99746.91
2022-10-21T07:21:24.873Z,99750.56
2022-10-21T07:23:52.774Z,99742.41
2022-10-21T07:26:21.450Z,99742.19
2022-10-21T07:28:48.355Z,99750.97
2022-10-21T07:31:16.139Z,99748.69
2022-10-21T07:33:43.317Z,99755.41
2022-10-21T07:36:20.357Z,99768.00
2022-10-21T07:38:48.908Z,99767.59
2022-10-21T07:41:25.475Z,99758.38
2022-10-21T07:43:52.985Z,99760.81
2022-10-21T07:46:21.473Z,99764.09
2022-10-21T07:48:48.900Z,99765.47
2022-10-21T07:51:18.637Z,99765.84
2022-10-21T07:53:46.672Z,99757.88
2022-10-21T07:56:16.415Z,99771.75
2022-10-21T07:58:44.417Z,99767.88
2022-10-21T08:01:11.656Z,99759.28
2022-10-21T08:03:39.038Z,99767.41
2022-10-21T08:06:07.219Z,99760.41
2022-10-21T08:08:34.900Z,99771.41
2022-10-21T08:11:02.484Z,99770.53
2022-10-21T08:13:31.719Z,99773.78
2022-10-21T08:15:59.014Z,99767.78
2022-10-21T08:18:28.823Z,99761.84
2022-10-21T08:20:57.736Z,99772.63
2022-10-21T08:23:26.584Z,99769.88
2022-10-21T08:25:56.822Z,99775.13
2022-10-21T08:28:28.382Z,99780.38
2022-10-21T08:31:06.750Z,99777.88
2022-10-21T08:33:34.093Z,99764.72
2022-10-21T08:36:06.236Z,99770.41
2022-10-21T08:38:34.824Z,99773.41
2022-10-21T08:41:02.725Z,99761.75
2022-10-21T08:43:35.148Z,99758.06
2022-10-21T08:46:07.698Z,99765.00
2022-10-21T08:48:42.938Z,99769.28
2022-10-21T08:51:23.060Z,99768.03
2022-10-21T08:53:54.010Z,99769.88
2022-10-21T08:56:21.066Z,99773.94
2022-10-21T08:58:52.098Z,99764.69
2022-10-21T09:01:38.485Z,99774.88
2022-10-21T09:04:15.400Z,99767.03
2022-10-21T09:06:45.020Z,99763.50
2022-10-21T09:09:30.774Z,99764.69
2022-10-21T09:12:18.619Z,99765.41
2022-10-21T09:14:54.554Z,99766.59
2022-10-21T09:17:36.344Z,99767.53
2022-10-21T09:20:16.279Z,99769.31
2022-10-21T09:23:21.332Z,99768.28
2022-10-21T09:26:04.103Z,99768.84
2022-10-21T09:28:31.757Z,99764.94
2022-10-21T09:31:02.590Z,99768.41
2022-10-21T09:33:32.483Z,99760.41
2022-10-21T09:36:02.050Z,99766.56
2022-10-21T09:38:48.379Z,99772.69
2022-10-21T09:44:16.635Z,99760.97
2022-10-21T09:46:46.301Z,99771.63
2022-10-21T09:49:47.843Z,99769.78
2022-10-21T09:52:11.823Z,99767.13
2022-10-21T09:54:42.200Z,99759.50
2022-10-21T09:57:31.850Z,99766.44
2022-10-21T10:00:02.724Z,99763.78
2022-10-21T10:02:33.732Z,99760.09
2022-10-21T10:05:00.470Z,99764.38
2022-10-21T10:07:35.480Z,99761.50
2022-10-21T10:10:22.913Z,99760.44
2022-10-21T10:12:58.104Z,99758.59
2022-10-21T10:15:38.883Z,99762.06
2022-10-21T10:18:32.887Z,99765.53
2022-10-21T10:21:11.288Z,99763.69
2022-10-21T10:23:50.584Z,99762.66
2022-10-21T10:26:31.826Z,99759.41
2022-10-21T10:29:11.415Z,99760.00
2022-10-21T10:31:39.141Z,99763.69
2022-10-21T10:34:09.121Z,99772.28
2022-10-21T10:36:39.745Z,99775.75
2022-10-21T10:39:17.030Z,99777.34
2022-10-21T10:41:48.324Z,99773.44
2022-10-21T10:44:40.279Z,99765.22
2022-10-21T10:47:16.846Z,99760.72
2022-10-21T10:49:46.635Z,99763.03
2022-10-21T10:52:13.372Z,99775.44
2022-10-21T10:54:41.988Z,99771.06
2022-10-21T10:57:33.949Z,99767.69
2022-10-21T11:00:32.870Z,99764.00
2022-10-21T11:03:14.590Z,99773.16
2022-10-21T11:05:51.292Z,99761.09
2022-10-21T11:08:36.503Z,99765.78
2022-10-21T11:11:07.264Z,99773.88
2022-10-21T11:13:37.880Z,99767.63
2022-10-21T11:16:13.962Z,99756.06
2022-10-21T11:18:55.596Z,99765.75
2022-10-21T11:21:28.121Z,99759.16
2022-10-21T11:24:17.512Z,99760.66
2022-10-21T11:27:05.893Z,99771.31
2022-10-21T11:29:50.596Z,99773.19
2022-10-21T11:32:36.111Z,99760.91
2022-10-21T11:35:03.375Z,99769.72
2022-10-21T11:37:54.476Z,99753.25
2022-10-21T11:40:32.276Z,99756.50
2022-10-21T11:43:16.672Z,99752.31
2022-10-21T11:45:49.736Z,99750.78
2022-10-21T11:48:34.865Z,99750.09
2022-10-21T11:51:21.810Z,99752.31
2022-10-21T11:54:14.002Z,99745.69
2022-10-21T11:56:50.583Z,99751.00
2022-10-21T11:59:55.255Z,99760.88
2022-10-21T12:02:39.696Z,99740.13
2022-10-21T12:05:06.679Z,99746.00
2022-10-21T12:07:51.933Z,99726.53
2022-10-21T12:10:21.936Z,99741.47
2022-10-21T12:12:50.671Z,99743.69
2022-10-21T12:15:22.041Z,99739.50
2022-10-21T12:17:49.964Z,99743.53
2022-10-21T12:20:27.080Z,99744.72
2022-10-21T12:23:03.872Z,99741.25
2022-10-21T12:25:30.548Z,99752.72
2022-10-21T12:28:32.087Z,99748.16
2022-10-21T12:31:17.080Z,99747.38
2022-10-21T12:33:45.826Z,99740.97
2022-10-21T12:36:24.591Z,99732.16
2022-10-21T12:38:51.289Z,99732.88
2022-10-21T12:41:21.147Z,99747.28
2022-10-21T12:44:05.645Z,99741.38
2022-10-21T12:46:37.568Z,99727.22
2022-10-21T12:49:32.636Z,99743.00
2022-10-21T12:52:08.635Z,99730.69
2022-10-21T12:55:11.628Z,99720.84
2022-10-21T12:57:42.660Z,99719.78
2022-10-21T13:00:28.325Z,99724.66
2022-10-21T13:02:58.574Z,99717.22
2022-10-21T13:06:02.219Z,99719.63
2022-10-21T13:08:40.259Z,99711.63
2022-10-21T13:11:09.773Z,99705.03
2022-10-21T13:13:42.593Z,99709.31
2022-10-21T13:16:18.710Z,99712.81
2022-10-21T13:18:51.499Z,99715.22
2022-10-21T13:21:35.569Z,99709.88
2022-10-21T13:24:15.326Z,99725.88
2022-10-21T13:26:49.549Z,99722.41
2022-10-21T13:29:52.365Z,99726.16
2022-10-21T13:32:33.743Z,99728.22
2022-10-21T13:35:22.614Z,99718.81
2022-10-21T13:37:59.725Z,99730.78
2022-10-21T13:40:38.982Z,99715.81
2022-10-21T13:43:13.932Z,99715.38
2022-10-21T13:45:48.305Z,99717.56
2022-10-21T13:48:36.857Z,99712.22
2022-10-21T13:51:17.574Z,99722.41
2022-10-21T13:53:48.351Z,99718.91
2022-10-21T13:56:36.505Z,99710.69
2022-10-21T13:59:04.901Z,99711.72
2022-10-21T14:01:47.501Z,99706.41
2022-10-21T14:04:16.820Z,99704.31
2022-10-21T14:06:58.406Z,99701.66
2022-10-21T14:09:32.288Z,99706.41
2022-10-21T14:12:02.841Z,99702.91
2022-10-21T14:14:31.976Z,99703.50
2022-10-21T14:17:05.832Z,99710.47
2022-10-21T14:19:36.861Z,99699.19
2022-10-21T14:24:56.913Z,99709.06
2022-10-21T14:27:31.308Z,99696.78
2022-10-21T14:30:01.035Z,99695.97
2022-10-21T14:32:28.262Z,99711.72
2022-10-21T14:35:10.403Z,99704.09
2022-10-21T14:37:44.591Z,99701.66
2022-10-21T14:40:29.834Z,99696.53
2022-10-21T14:42:56.801Z,99701.88
2022-10-21T14:45:33.099Z,99699.19
2022-10-21T14:48:11.327Z,99696.78
2022-10-21T14:50:40.204Z,99690.06
2022-10-21T14:53:17.139Z,99690.06
2022-10-21T14:55:46.032Z,99681.25
2022-10-21T14:58:35.591Z,99689.03
2022-10-21T15:01:12.675Z,99678.13
2022-10-21T15:03:44.044Z,99671.16
2022-10-21T15:06:37.163Z,99682.88
2022-10-21T15:09:06.996Z,99678.13
2022-10-21T15:11:37.668Z,99676.94
2022-10-21T15:14:13.746Z,99679.06
2022-10-21T15:16:46.291Z,99672.91
2022-10-21T15:19:21.943Z,99679.06
2022-10-21T15:21:53.082Z,99665.38
2022-10-21T15:24:50.419Z,99673.16
2022-10-21T15:27:28.241Z,99668.84
2022-10-21T15:29:55.256Z,99665.38
2022-10-21T15:32:26.788Z,99674.19
2022-10-21T15:34:55.177Z,99660.28
2022-10-21T15:37:22.018Z,99663.19
2022-10-21T15:39:49.073Z,99664.00
2022-10-21T15:42:22.818Z,99667.72
2022-10-21T15:44:50.511Z,99674.69
2022-10-21T15:47:17.401Z,99661.81
2022-10-21T15:49:46.169Z,99681.28
2022-10-21T15:52:14.039Z,99674.34
2022-10-21T15:54:41.255Z,99675.84
2022-10-21T15:57:22.529Z,99667.28
2022-10-21T15:59:49.290Z,99659.75
2022-10-21T16:02:17.855Z,99661.84
2022-10-21T16:04:45.314Z,99669.63
2022-10-21T16:07:20.245Z,99650.38
2022-10-21T16:09:47.862Z,99654.91
2022-10-21T16:12:16.960Z,99653.53
2022-10-21T16:14:43.703Z,99663.59
2022-10-21T16:17:12.389Z,99658.19
2022-10-21T16:19:39.125Z,99659.22
2022-10-21T16:22:16.275Z,99672.78
2022-10-21T16:24:43.033Z,99670.38
2022-10-21T16:27:12.910Z,99687.63
2022-10-21T16:29:40.353Z,99681.75
2022-10-21T16:32:07.661Z,99708.84
2022-10-21T16:34:34.396Z,99703.66
2022-10-21T16:37:01.537Z,99690.91
2022-10-21T16:39:28.425Z,99685.13
2022-10-21T16:41:55.178Z,99689.38
2022-10-21T16:44:22.357Z,99687.66
2022-10-21T16:46:54.540Z,99698.66
2022-10-21T16:49:25.336Z,99694.84
2022-10-21T16:51:53.206Z,99694.25
2022-10-21T16:54:21.440Z,99706.19
2022-10-21T16:56:48.216Z,99694.38
2022-10-21T16:59:15.206Z,99687.66
2022-10-21T17:01:46.545Z,99683.84
2022-10-21T17:04:14.697Z,99692.84
2022-10-21T17:06:41.618Z,99693.91
2022-10-21T17:09:09.340Z,99688.34
2022-10-21T17:11:40.890Z,99697.38
2022-10-21T17:14:11.827Z,99695.75
2022-10-21T17:16:40.250Z,99695.31
2022-10-21T17:19:08.267Z,99689.28
2022-10-21T17:21:35.705Z,99681.50
2022-10-21T17:24:04.012Z,99696.34
2022-10-21T17:26:31.321Z,99691.47
2022-10-21T17:28:58.514Z,99707.47
2022-10-21T17:31:30.782Z,99704.19
2022-10-21T17:34:00.271Z,99705.25
2022-10-21T17:36:26.991Z,99717.50
2022-10-21T17:38:53.976Z,99722.03
2022-10-21T17:41:20.760Z,99739.50
2022-10-21T17:43:55.634Z,99743.06
2022-10-21T17:46:25.426Z,99733.56
2022-10-21T17:48:53.819Z,99736.09
2022-10-21T17:51:22.925Z,99728.34
2022-10-21T17:53:54.930Z,99730.63
2022-10-21T17:56:22.911Z,99725.78
2022-10-21T17:58:51.368Z,99735.38
2022-10-21T18:01:18.544Z,99731.69
2022-10-21T18:03:45.536Z,99736.41
2022-10-21T18:06:13.471Z,99731.31
2022-10-21T18:08:40.476Z,99732.38
2022-10-21T18:11:10.301Z,99736.06
2022-10-21T18:13:37.921Z,99736.50
2022-10-21T18:16:08.169Z,99734.31
2022-10-21T18:18:35.712Z,99731.88
2022-10-21T18:21:11.046Z,99726.53
2022-10-21T18:23:40.621Z,99726.66
2022-10-21T18:26:13.969Z,99725.63
2022-10-21T18:28:41.023Z,99720.53
2022-10-21T18:31:07.871Z,99718.94
2022-10-21T18:33:34.865Z,99714.19
2022-10-21T18:36:13.355Z,99714.53
2022-10-21T18:38:40.816Z,99721.72
2022-10-21T18:41:19.648Z,99721.72
2022-10-21T18:43:49.871Z,99718.59
2022-10-21T18:46:16.891Z,99718.81
2022-10-21T18:48:43.986Z,99723.94
2022-10-21T18:51:12.392Z,99715.13
2022-10-21T18:53:39.736Z,99715.72
2022-10-21T18:56:08.911Z,99721.03
2022-10-21T18:58:36.659Z,99724.28
2022-10-21T19:01:04.769Z,99730.19
2022-10-21T19:03:31.898Z,99721.63
2022-10-21T19:06:15.194Z,99709.59
2022-10-21T19:08:42.136Z,99715.47
2022-10-21T19:11:09.005Z,99712.59
2022-10-21T19:13:36.038Z,99717.91
2022-10-21T19:16:02.767Z,99714.78
2022-10-21T19:18:29.658Z,99723.84
2022-10-21T19:20:56.960Z,99728.09
2022-10-21T19:23:23.929Z,99716.41
2022-10-21T19:25:50.663Z,99718.88
2022-10-21T19:28:17.433Z,99718.03
2022-10-21T19:30:45.834Z,99717.00
2022-10-21T19:33:12.565Z,99715.97
2022-10-21T19:35:39.375Z,99726.38
2022-10-21T19:38:11.565Z,99714.91
2022-10-21T19:40:42.779Z,99729.28
2022-10-21T19:43:09.847Z,99721.66
2022-10-21T19:45:37.287Z,99730.22
2022-10-21T19:48:04.323Z,99729.75
2022-10-21T19:50:31.124Z,99737.53
2022-10-21T19:52:57.861Z,99729.75
2022-10-21T19:55:24.671Z,99728.72
2022-10-21T19:57:51.408Z,99739.13
2022-10-21T20:00:18.213Z,99739.38
2022-10-21T20:02:44.983Z,99735.09
2022-10-21T20:05:11.844Z,99743.06
2022-10-21T20:07:39.472Z,99737.75
2022-10-21T20:10:06.780Z,99738.56
2022-10-21T20:12:33.595Z,99740.41
2022-10-21T20:15:00.518Z,99737.75
2022-10-21T20:17:27.468Z,99740.41
2022-10-21T20:19:54.358Z,99753.50
2022-10-21T20:22:23.439Z,99748.75
2022-10-21T20:24:53.059Z,99744.25
2022-10-21T20:27:19.786Z,99742.84
2022-10-21T20:29:46.487Z,99747.38
2022-10-21T20:32:13.544Z,99743.06
2022-10-21T20:34:40.445Z,99755.09
2022-10-21T20:37:07.200Z,99751.41
2022-10-21T20:39:33.964Z,99761.84
2022-10-21T20:42:00.731Z,99756.16
2022-10-21T20:44:27.473Z,99757.19
2022-10-21T20:46:54.374Z,99758.84
2022-10-21T20:49:21.134Z,99760.69
2022-10-21T20:51:48.031Z,99756.97
2022-10-21T20:54:17.626Z,99759.66
2022-10-21T20:56:45.050Z,99757.19
2022-10-21T20:59:17.041Z,99763.09
2022-10-21T21:01:46.255Z,99764.16
2022-10-21T21:04:15.261Z,99758.00
2022-10-21T21:06:47.237Z,99762.06
2022-10-21T21:09:37.618Z,99768.19
2022-10-21T21:12:03.995Z,99770.03
2022-10-21T21:14:31.459Z,99768.19
2022-10-21T21:16:58.282Z,99766.13
2022-10-21T21:19:25.904Z,99759.78
2022-10-21T21:21:53.420Z,99763.00
2022-10-21T21:24:20.331Z,99763.00
2022-10-21T21:26:47.191Z,99769.13
2022-10-21T21:29:14.562Z,99761.38
2022-10-21T21:31:42.257Z,99772.28
2022-10-21T21:34:10.076Z,99763.47
2022-10-21T21:36:37.466Z,99760.81
2022-10-21T21:39:05.412Z,99766.94
2022-10-21T21:41:32.286Z,99767.75
2022-10-21T21:43:59.172Z,99768.53
2022-10-21T21:46:26.523Z,99772.84
2022-10-21T21:48:59.556Z,99764.84
2022-10-21T21:51:30.511Z,99771.00
2022-10-21T21:53:58.456Z,99766.47
2022-10-21T21:56:26.513Z,99768.53
2022-10-21T21:58:58.219Z,99772.50
2022-10-21T22:01:31.961Z,99774.56
2022-10-21T22:04:00.444Z,99767.38
2022-10-21T22:06:33.390Z,99782.31
2022-10-21T22:09:01.328Z,99787.66
2022-10-21T22:11:32.077Z,99785.22
2022-10-21T22:13:59.590Z,99776.19
2022-10-21T22:16:30.522Z,99800.75
2022-10-21T22:18:59.891Z,99803.41
2022-10-21T22:21:30.805Z,99796.44
2022-10-21T22:23:57.694Z,99801.19
2022-10-21T22:26:27.064Z,99802.69
2022-10-21T22:28:54.788Z,99786.56
2022-10-21T22:31:27.349Z,99795.84
2022-10-21T22:33:57.390Z,99794.88
2022-10-21T22:36:24.167Z,99784.91
2022-10-21T22:38:50.873Z,99799.94
2022-10-21T22:41:17.802Z,99798.38
2022-10-21T22:43:44.659Z,99794.78
2022-10-21T22:48:58.205Z,99800.16
2022-10-21T22:51:25.019Z,99803.25
2022-10-21T22:53:55.341Z,99797.94
2022-10-21T22:56:25.570Z,99807.41
2022-10-21T22:58:52.345Z,99803.09
2022-10-21T23:01:19.730Z,99810.94
2022-10-21T23:03:46.482Z,99804.25
2022-10-21T23:06:13.200Z,99809.16
2022-10-21T23:08:40.180Z,99812.88
2022-10-21T23:11:07.177Z,99812.06
2022-10-21T23:13:34.096Z,99821.91
2022-10-21T23:16:00.980Z,99814.94
2022-10-21T23:18:31.861Z,99823.94
2022-10-21T23:20:58.614Z,99832.75
2022-10-21T23:23:25.485Z,99828.25
2022-10-21T23:25:52.333Z,99829.06
2022-10-21T23:28:25.498Z,99835.56
2022-10-21T23:30:52.236Z,99842.72
2022-10-21T23:33:19.011Z,99844.81
2022-10-21T23:35:45.968Z,99848.69
2022-10-21T23:38:12.985Z,99848.13
2022-10-21T23:40:39.841Z,99841.19
2022-10-21T23:43:06.566Z,99847.88
2022-10-21T23:45:33.456Z,99850.53
2022-10-21T23:48:00.340Z,99846.50
2022-10-21T23:50:27.188Z,99848.34
2022-10-21T23:52:54.109Z,99856.16
2022-10-21T23:55:20.932Z,99852.91
2022-10-21T23:57:47.712Z,99864.56
